Time;durP1;ratioP1;P1;durP2;ratioP2;P2;SDS_P1;SDS_P2;PMS_P1;PMS_P2;Temp;Humidity;BMP_temperature;BMP_pressure;BME280_temperature;BME280_humidity;BME280_pressure;Samples;Min_cycle;Max_cycle;Signal;HPM_P1;HPM_P2
2021/07/22 00:01:44;;;;;;;13.20;10.20;;;17.70;99.90;;;;;;4894771;29;20455;-75
2021/07/22 00:04:10;;;;;;;11.43;10.13;;;17.70;99.90;;;;;;4896670;29;20025;-70
2021/07/22 00:06:35;;;;;;;14.70;10.93;;;17.60;99.90;;;;;;4962455;28;20484;-72
2021/07/22 00:09:01;;;;;;;14.65;11.77;;;17.60;99.90;;;;;;4897390;29;20068;-69
2021/07/22 00:11:26;;;;;;;14.63;11.82;;;17.60;99.90;;;;;;4961731;28;20107;-70
2021/07/22 00:13:52;;;;;;;16.63;11.40;;;17.60;99.90;;;;;;4897419;29;20036;-69
2021/07/22 00:16:19;;;;;;;13.82;11.15;;;17.60;99.90;;;;;;4897260;29;20079;-72
2021/07/22 00:18:44;;;;;;;14.60;12.20;;;17.60;99.90;;;;;;4896753;29;20110;-71
2021/07/22 00:21:10;;;;;;;15.30;11.93;;;17.50;99.90;;;;;;4897297;29;20381;-70
2021/07/22 00:23:35;;;;;;;15.57;11.75;;;17.50;99.90;;;;;;4897465;29;20025;-69
2021/07/22 00:26:05;;;;;;;13.88;10.70;;;17.50;99.90;;;;;;4896779;29;20056;-70
2021/07/22 00:28:30;;;;;;;13.45;11.30;;;17.50;99.90;;;;;;4896954;29;20040;-72
2021/07/22 00:30:57;;;;;;;13.80;11.90;;;17.50;99.90;;;;;;4962381;28;20535;-73
2021/07/22 00:33:22;;;;;;;12.38;11.07;;;17.50;99.90;;;;;;4961020;28;20021;-76
2021/07/22 00:35:48;;;;;;;14.63;11.80;;;17.50;99.90;;;;;;4962106;28;20425;-70
2021/07/22 00:38:14;;;;;;;14.35;10.63;;;17.50;99.90;;;;;;4896856;29;20115;-71
2021/07/22 00:40:46;;;;;;;15.27;12.73;;;17.50;99.90;;;;;;4896415;29;20090;-69
2021/07/22 00:43:12;;;;;;;12.52;11.23;;;17.50;99.90;;;;;;4961651;28;20112;-69
2021/07/22 00:45:38;;;;;;;13.18;11.27;;;17.50;99.90;;;;;;4961225;28;20497;-72
2021/07/22 00:48:03;;;;;;;13.13;11.32;;;17.50;99.90;;;;;;4961904;28;20114;-71
2021/07/22 00:50:30;;;;;;;13.88;11.93;;;17.40;99.90;;;;;;4896686;29;20027;-73
2021/07/22 00:52:55;;;;;;;13.88;10.88;;;17.40;99.90;;;;;;4896366;29;20035;-72
2021/07/22 00:55:27;;;;;;;13.60;10.80;;;17.30;99.90;;;;;;4977553;28;20048;-69
2021/07/22 00:57:53;;;;;;;12.48;11.18;;;17.30;99.90;;;;;;4896938;29;20151;-69
2021/07/22 01:00:20;;;;;;;13.52;11.40;;;17.20;99.90;;;;;;4895786;29;20032;-70
2021/07/22 01:02:45;;;;;;;14.50;12.63;;;17.10;99.90;;;;;;4896810;29;20071;-69
2021/07/22 01:05:11;;;;;;;14.30;11.13;;;17.10;99.90;;;;;;4896423;29;20056;-68
2021/07/22 01:07:37;;;;;;;15.45;11.40;;;17.00;99.90;;;;;;4896107;29;20039;-68
2021/07/22 01:10:05;;;;;;;13.52;11.23;;;17.00;99.90;;;;;;4961542;28;20492;-71
2021/07/22 01:12:31;;;;;;;14.75;11.52;;;16.90;99.90;;;;;;4896214;29;20032;-68
2021/07/22 01:14:56;;;;;;;14.98;12.40;;;16.90;99.90;;;;;;4896125;29;20025;-68
2021/07/22 01:17:35;;;;;;;14.57;12.20;;;16.90;99.90;;;;;;4896428;29;20039;-70
2021/07/22 01:20:02;;;;;;;13.32;11.40;;;16.90;99.90;;;;;;4896593;29;20390;-69
2021/07/22 01:22:30;;;;;;;15.43;11.73;;;16.80;99.90;;;;;;4895599;29;20076;-68
2021/07/22 01:24:56;;;;;;;13.80;11.38;;;16.80;99.90;;;;;;4896462;29;20060;-71
2021/07/22 01:27:21;;;;;;;17.63;12.80;;;16.80;99.90;;;;;;4960918;28;20052;-68
2021/07/22 01:29:47;;;;;;;17.27;12.82;;;16.80;99.90;;;;;;4895840;29;20466;-68
2021/07/22 01:32:12;;;;;;;15.55;12.20;;;16.80;99.90;;;;;;4896110;29;20418;-68
2021/07/22 01:34:38;;;;;;;15.65;12.60;;;16.80;99.90;;;;;;4895654;29;20043;-68
2021/07/22 01:37:03;;;;;;;15.25;12.23;;;16.80;99.90;;;;;;4896547;29;20028;-68
2021/07/22 01:39:29;;;;;;;14.93;12.30;;;16.80;99.90;;;;;;4895859;29;20051;-68
2021/07/22 01:41:55;;;;;;;17.40;13.43;;;16.80;99.90;;;;;;4960382;28;20399;-68
2021/07/22 01:44:20;;;;;;;12.75;11.35;;;16.70;99.90;;;;;;4895835;29;20063;-75
2021/07/22 01:46:46;;;;;;;14.43;12.68;;;16.70;99.90;;;;;;4896188;29;20021;-68
2021/07/22 01:49:11;;;;;;;16.02;12.73;;;16.70;99.90;;;;;;4895259;29;20025;-69
2021/07/22 01:51:37;;;;;;;18.45;12.20;;;16.70;99.90;;;;;;4896115;29;20029;-70
2021/07/22 01:54:02;;;;;;;16.00;13.27;;;16.70;99.90;;;;;;4895815;29;20390;-69
2021/07/22 01:56:28;;;;;;;15.27;12.55;;;16.70;99.90;;;;;;4895176;29;20484;-69
2021/07/22 01:58:53;;;;;;;16.85;12.98;;;16.70;99.90;;;;;;4895984;29;20059;-68
2021/07/22 02:01:19;;;;;;;15.35;12.55;;;16.60;99.90;;;;;;4959930;28;20108;-68
2021/07/22 02:03:44;;;;;;;15.98;12.15;;;16.60;99.90;;;;;;4895176;29;20051;-68
2021/07/22 02:06:11;;;;;;;16.48;13.15;;;16.50;99.90;;;;;;4895611;29;20025;-69
2021/07/22 02:08:36;;;;;;;15.40;13.00;;;16.50;99.90;;;;;;4896011;29;20020;-69
2021/07/22 02:11:03;;;;;;;14.75;12.85;;;16.50;99.90;;;;;;4895078;29;20025;-71
2021/07/22 02:13:28;;;;;;;14.77;12.80;;;16.50;99.90;;;;;;4895395;29;20380;-75
2021/07/22 02:15:54;;;;;;;15.05;11.80;;;16.50;99.90;;;;;;4895828;29;20099;-72
2021/07/22 02:18:20;;;;;;;14.80;12.65;;;16.60;99.90;;;;;;4894847;29;20051;-69
2021/07/22 02:20:46;;;;;;;15.55;13.10;;;16.60;99.90;;;;;;4895756;29;20017;-74
2021/07/22 02:23:12;;;;;;;17.60;13.60;;;16.70;99.90;;;;;;4895348;29;20112;-68
2021/07/22 02:25:37;;;;;;;16.45;13.82;;;16.70;99.90;;;;;;4894391;29;20417;-69
2021/07/22 02:28:03;;;;;;;16.17;12.40;;;16.70;99.90;;;;;;4895574;29;20033;-73
2021/07/22 02:30:29;;;;;;;18.33;14.02;;;16.80;99.90;;;;;;4959685;28;20029;-76
2021/07/22 02:32:54;;;;;;;19.08;13.02;;;16.80;99.90;;;;;;4894876;29;20350;-68
2021/07/22 02:35:20;;;;;;;17.20;13.48;;;16.90;99.90;;;;;;4895219;29;20056;-72
2021/07/22 02:37:46;;;;;;;18.38;14.30;;;16.80;99.90;;;;;;4895652;29;20028;-71
2021/07/22 02:40:12;;;;;;;16.70;13.75;;;16.80;99.90;;;;;;4894475;29;20033;-68
2021/07/22 02:42:37;;;;;;;17.35;14.57;;;16.80;99.90;;;;;;4895339;29;20082;-73
2021/07/22 02:45:05;;;;;;;16.42;14.32;;;16.70;99.90;;;;;;4959234;28;20037;-69
2021/07/22 02:47:30;;;;;;;16.42;13.73;;;16.70;99.90;;;;;;4895048;29;20020;-69
2021/07/22 02:49:56;;;;;;;16.80;14.43;;;16.70;99.90;;;;;;4959743;28;20028;-71
2021/07/22 02:52:22;;;;;;;16.92;13.55;;;16.60;99.90;;;;;;4958790;28;20024;-71
2021/07/22 02:54:47;;;;;;;16.30;13.73;;;16.60;99.90;;;;;;4895067;29;20052;-69
2021/07/22 02:57:13;;;;;;;17.90;13.90;;;16.60;99.90;;;;;;4959393;28;20494;-71
2021/07/22 02:59:38;;;;;;;17.60;14.15;;;16.60;99.90;;;;;;4894676;29;20033;-75
2021/07/22 03:02:05;;;;;;;22.48;16.10;;;16.60;99.90;;;;;;4895326;29;20050;-70
2021/07/22 03:04:31;;;;;;;17.42;14.63;;;16.50;99.90;;;;;;4959358;28;20391;-68
2021/07/22 03:06:56;;;;;;;19.85;15.75;;;16.50;99.90;;;;;;4894609;29;20112;-70
2021/07/22 03:09:22;;;;;;;21.33;15.88;;;16.40;99.90;;;;;;4894572;29;20033;-74
2021/07/22 03:11:47;;;;;;;20.75;15.27;;;16.40;99.90;;;;;;4895071;29;20021;-73
2021/07/22 03:14:13;;;;;;;19.52;15.88;;;16.40;99.90;;;;;;4958335;28;20033;-68
2021/07/22 03:16:39;;;;;;;23.08;15.98;;;16.40;99.90;;;;;;4895240;29;20115;-69
2021/07/22 03:19:04;;;;;;;19.77;16.15;;;16.40;99.90;;;;;;4894642;29;20079;-68
2021/07/22 03:21:30;;;;;;;18.85;16.45;;;16.40;99.90;;;;;;4894057;29;20044;-72
2021/07/22 03:23:55;;;;;;;20.08;16.67;;;16.40;99.90;;;;;;4894891;29;20469;-77
2021/07/22 03:26:21;;;;;;;23.75;17.63;;;16.50;99.90;;;;;;4894716;29;20027;-72
2021/07/22 03:28:47;;;;;;;21.25;17.13;;;16.40;99.90;;;;;;4894054;29;20100;-71
2021/07/22 03:31:12;;;;;;;26.02;17.98;;;16.40;99.90;;;;;;4894473;29;20059;-71
2021/07/22 03:33:38;;;;;;;22.13;17.40;;;16.40;99.90;;;;;;4894903;29;20436;-68
2021/07/22 03:36:04;;;;;;;24.17;17.95;;;16.40;99.90;;;;;;4958781;28;20036;-74
2021/07/22 03:38:30;;;;;;;22.13;16.30;;;16.40;99.90;;;;;;4962322;28;20033;-74
2021/07/22 03:40:55;;;;;;;21.85;17.98;;;16.40;99.90;;;;;;4898121;29;20025;-72
2021/07/22 03:43:21;;;;;;;24.25;17.42;;;16.40;99.90;;;;;;4896937;29;20477;-72
2021/07/22 03:45:46;;;;;;;23.52;18.13;;;16.50;99.90;;;;;;4897908;29;20021;-74
2021/07/22 03:48:15;;;;;;;20.88;17.52;;;16.50;99.90;;;;;;4897107;29;20473;-69
2021/07/22 03:50:40;;;;;;;19.50;16.70;;;16.50;99.90;;;;;;4897922;29;20392;-69
2021/07/22 03:53:07;;;;;;;23.67;17.33;;;16.50;99.90;;;;;;4962894;28;20028;-69
2021/07/22 03:55:33;;;;;;;20.67;16.45;;;16.60;99.90;;;;;;4897095;29;20903;-71
2021/07/22 03:57:58;;;;;;;24.20;18.70;;;16.60;99.90;;;;;;4897766;29;20064;-69
2021/07/22 04:00:24;;;;;;;22.00;17.35;;;16.60;99.90;;;;;;4962425;28;20032;-69
2021/07/22 04:03:00;;;;;;;19.50;17.35;;;16.60;99.90;;;;;;4897043;29;20064;-69
2021/07/22 04:05:27;;;;;;;19.63;16.27;;;16.50;99.90;;;;;;4897585;29;20117;-68
2021/07/22 04:07:59;;;;;;;20.92;17.88;;;16.50;99.90;;;;;;4962789;28;20119;-69
2021/07/22 04:10:26;;;;;;;22.27;18.13;;;16.50;99.90;;;;;;4896711;28;20519;-70
2021/07/22 04:12:59;;;;;;;22.35;16.77;;;16.40;99.90;;;;;;4962345;28;20029;-68
2021/07/22 04:15:25;;;;;;;22.42;17.70;;;16.50;99.90;;;;;;4897298;29;20035;-68
2021/07/22 04:17:52;;;;;;;21.73;17.10;;;16.50;99.90;;;;;;4961850;28;20485;-68
2021/07/22 04:20:19;;;;;;;23.58;18.58;;;16.50;99.90;;;;;;4897034;29;20438;-68
2021/07/22 04:22:44;;;;;;;20.48;17.42;;;16.50;99.90;;;;;;4897504;29;20104;-70
2021/07/22 04:25:10;;;;;;;22.45;17.75;;;16.50;99.90;;;;;;4896282;29;20449;-68
2021/07/22 04:27:36;;;;;;;22.33;17.88;;;16.40;99.90;;;;;;4897414;29;20033;-69
2021/07/22 04:30:01;;;;;;;20.98;16.40;;;16.40;99.90;;;;;;4962295;28;20568;-68
2021/07/22 04:32:27;;;;;;;23.67;17.05;;;16.40;99.90;;;;;;4961270;28;20043;-68
2021/07/22 04:34:53;;;;;;;20.48;15.80;;;16.50;99.90;;;;;;4897120;29;20029;-69
2021/07/22 04:37:18;;;;;;;18.50;15.57;;;16.50;99.90;;;;;;4897187;29;20025;-68
2021/07/22 04:39:44;;;;;;;19.95;16.85;;;16.50;99.90;;;;;;4896693;29;20466;-68
2021/07/22 04:42:09;;;;;;;20.52;16.70;;;16.50;99.90;;;;;;4961691;28;20016;-72
2021/07/22 04:44:35;;;;;;;18.35;15.80;;;16.50;99.90;;;;;;4896413;29;20029;-69
2021/07/22 04:47:00;;;;;;;17.20;15.18;;;16.60;99.90;;;;;;4961869;28;20076;-69
2021/07/22 04:49:26;;;;;;;19.00;16.17;;;16.60;99.90;;;;;;4896278;29;20040;-68
2021/07/22 04:51:52;;;;;;;17.92;15.73;;;16.60;99.90;;;;;;4896371;29;20107;-69
2021/07/22 04:54:18;;;;;;;19.58;15.80;;;16.50;99.90;;;;;;4961335;28;20052;-68
2021/07/22 04:56:43;;;;;;;16.70;14.63;;;16.50;99.90;;;;;;4896933;29;20033;-68
2021/07/22 04:59:09;;;;;;;22.90;16.42;;;16.50;99.90;;;;;;4960778;28;20041;-69
2021/07/22 05:01:35;;;;;;;18.02;16.13;;;16.50;99.90;;;;;;4896924;29;20378;-74
2021/07/22 05:04:00;;;;;;;20.52;16.23;;;16.50;99.90;;;;;;4889976;29;20029;-69
2021/07/22 05:06:26;;;;;;;17.73;14.93;;;16.60;99.90;;;;;;4889539;29;20021;-69
2021/07/22 05:08:52;;;;;;;17.50;15.60;;;16.60;99.90;;;;;;4950516;28;20051;-71
2021/07/22 05:11:17;;;;;;;20.55;17.50;;;16.60;99.90;;;;;;4877801;29;20029;-68
2021/07/22 05:13:44;;;;;;;17.70;15.88;;;16.60;99.90;;;;;;4956186;28;20485;-75
2021/07/22 05:16:10;;;;;;;19.20;16.15;;;16.60;99.90;;;;;;4896447;29;20032;-67
2021/07/22 05:18:36;;;;;;;26.33;18.25;;;16.60;99.90;;;;;;4961209;28;20091;-68
2021/07/22 05:21:07;;;;;;;22.27;17.95;;;16.60;99.90;;;;;;4960649;28;20025;-68
2021/07/22 05:23:34;;;;;;;20.10;17.15;;;16.60;99.90;;;;;;4896434;29;20474;-71
2021/07/22 05:26:04;;;;;;;20.10;17.48;;;16.60;99.90;;;;;;4945716;28;20013;-70
2021/07/22 05:28:30;;;;;;;23.33;17.07;;;16.60;99.90;;;;;;4876940;28;20029;-80
2021/07/22 05:30:55;;;;;;;21.05;18.42;;;16.60;99.90;;;;;;4877728;29;20029;-69
2021/07/22 05:33:21;;;;;;;22.10;18.65;;;16.60;99.90;;;;;;4877438;28;20025;-68
2021/07/22 05:35:47;;;;;;;20.70;18.42;;;16.60;99.90;;;;;;4941446;29;20036;-78
2021/07/22 05:38:12;;;;;;;21.52;18.00;;;16.60;99.90;;;;;;4947847;28;20029;-72
2021/07/22 05:40:38;;;;;;;20.80;18.33;;;16.60;99.90;;;;;;4896027;29;20043;-74
2021/07/22 05:43:03;;;;;;;22.27;18.40;;;16.60;99.90;;;;;;4895269;29;20020;-70
2021/07/22 05:45:29;;;;;;;21.92;18.60;;;16.60;99.90;;;;;;4895828;28;20041;-71
2021/07/22 05:47:55;;;;;;;19.40;16.00;;;16.70;99.90;;;;;;4895488;29;20025;-69
2021/07/22 05:50:20;;;;;;;21.90;17.35;;;16.70;99.90;;;;;;4896047;28;20035;-73
2021/07/22 05:52:46;;;;;;;22.08;17.80;;;16.70;99.90;;;;;;4896191;29;20373;-69
2021/07/22 05:55:12;;;;;;;18.45;16.30;;;16.80;99.90;;;;;;4959632;28;20628;-69
2021/07/22 05:57:37;;;;;;;21.70;18.08;;;16.80;99.90;;;;;;4895545;29;20035;-71
2021/07/22 06:00:07;;;;;;;22.15;18.52;;;16.90;99.90;;;;;;4894857;29;20045;-69
2021/07/22 06:02:32;;;;;;;21.58;18.30;;;16.90;99.90;;;;;;4957115;28;20378;-72
2021/07/22 06:05:00;;;;;;;22.65;17.58;;;17.00;99.90;;;;;;4956860;28;20070;-76
2021/07/22 06:07:26;;;;;;;20.92;18.33;;;17.00;99.90;;;;;;4897290;28;20036;-69
2021/07/22 06:09:51;;;;;;;21.27;17.75;;;17.10;99.90;;;;;;4903593;29;20094;-70
2021/07/22 06:12:17;;;;;;;22.35;17.92;;;17.10;99.90;;;;;;4964756;28;20027;-72
2021/07/22 06:14:42;;;;;;;19.52;17.05;;;17.20;99.90;;;;;;4958786;28;20071;-69
2021/07/22 06:17:08;;;;;;;20.30;17.33;;;17.20;99.90;;;;;;4894042;29;20025;-74
2021/07/22 06:19:33;;;;;;;23.67;16.48;;;17.30;99.90;;;;;;4894559;29;20119;-68
2021/07/22 06:21:59;;;;;;;19.50;17.50;;;17.40;99.90;;;;;;4959686;28;20436;-68
2021/07/22 06:24:25;;;;;;;23.45;18.90;;;17.50;99.90;;;;;;4918447;28;20029;-71
2021/07/22 06:26:50;;;;;;;21.02;17.67;;;17.50;99.90;;;;;;4894792;29;20037;-68
2021/07/22 06:29:16;;;;;;;19.40;17.40;;;17.60;99.90;;;;;;4894811;29;20024;-79
2021/07/22 06:31:41;;;;;;;18.60;16.27;;;17.70;99.90;;;;;;4958720;28;20033;-71
2021/07/22 06:34:07;;;;;;;20.73;16.55;;;17.80;99.90;;;;;;4895051;29;20108;-71
2021/07/22 06:36:32;;;;;;;20.52;17.65;;;17.80;99.90;;;;;;4958987;28;20112;-70
2021/07/22 06:38:58;;;;;;;22.30;17.20;;;17.90;99.90;;;;;;4894237;29;20040;-73
2021/07/22 06:41:23;;;;;;;19.98;16.10;;;17.90;99.90;;;;;;4958578;28;20032;-74
2021/07/22 06:43:49;;;;;;;19.50;16.45;;;18.00;99.90;;;;;;4959516;28;20029;-81
2021/07/22 06:46:15;;;;;;;17.83;15.52;;;18.00;99.90;;;;;;4893255;29;20016;-77
2021/07/22 06:48:41;;;;;;;21.23;16.52;;;18.10;99.90;;;;;;4958501;28;20540;-74
2021/07/22 06:51:07;;;;;;;16.90;14.98;;;18.20;99.90;;;;;;4893544;29;20033;-71
2021/07/22 06:53:33;;;;;;;19.98;15.90;;;18.20;99.90;;;;;;4880168;29;20030;-76
2021/07/22 06:55:59;;;;;;;19.23;15.35;;;18.30;99.90;;;;;;4875547;28;20393;-71
2021/07/22 06:58:24;;;;;;;20.60;16.10;;;18.50;99.90;;;;;;4938505;29;20029;-73
2021/07/22 07:00:51;;;;;;;18.88;16.13;;;18.60;99.90;;;;;;4876796;29;20029;-68
2021/07/22 07:03:18;;;;;;;18.75;16.27;;;18.70;99.90;;;;;;4884113;28;20033;-71
2021/07/22 07:05:44;;;;;;;17.95;15.02;;;18.90;99.90;;;;;;4887591;28;20037;-73
2021/07/22 07:08:10;;;;;;;15.60;13.95;;;19.10;99.90;;;;;;4874874;29;20029;-74
2021/07/22 07:10:35;;;;;;;19.02;15.35;;;19.30;99.90;;;;;;4955067;28;20079;-74
2021/07/22 07:13:01;;;;;;;14.93;13.27;;;19.50;99.90;;;;;;4893938;29;20120;-72
2021/07/22 07:15:27;;;;;;;13.65;12.20;;;19.70;99.90;;;;;;4893753;29;20391;-71
2021/07/22 07:17:53;;;;;;;13.68;12.07;;;19.70;99.90;;;;;;4882071;29;20072;-71
2021/07/22 07:20:18;;;;;;;17.15;13.15;;;19.70;99.90;;;;;;4874799;29;20397;-71
2021/07/22 07:22:44;;;;;;;16.13;13.75;;;19.70;99.90;;;;;;4876151;28;20029;-71
2021/07/22 07:25:10;;;;;;;15.63;12.57;;;19.80;99.90;;;;;;4874848;29;20120;-74
2021/07/22 07:27:38;;;;;;;15.60;12.73;;;19.90;99.90;;;;;;4874923;28;20025;-71
2021/07/22 07:30:05;;;;;;;16.15;12.80;;;20.10;99.90;;;;;;4877360;29;20029;-72
2021/07/22 07:32:30;;;;;;;15.57;13.75;;;20.20;99.90;;;;;;4949212;28;20029;-71
2021/07/22 07:34:56;;;;;;;16.77;13.57;;;20.40;99.90;;;;;;4876132;29;20049;-73
2021/07/22 07:37:21;;;;;;;16.30;12.35;;;20.40;99.90;;;;;;4874907;29;20025;-72
2021/07/22 07:39:47;;;;;;;15.18;13.43;;;20.50;99.90;;;;;;4877294;29;20060;-72
2021/07/22 07:42:12;;;;;;;15.00;13.05;;;20.50;99.90;;;;;;4957928;28;20036;-72
2021/07/22 07:44:38;;;;;;;14.32;12.05;;;20.50;99.90;;;;;;4897257;28;20037;-75
2021/07/22 07:47:03;;;;;;;16.48;13.02;;;20.50;99.90;;;;;;4957969;28;20040;-73
2021/07/22 07:49:29;;;;;;;15.07;13.48;;;20.50;99.90;;;;;;4976586;28;20055;-77
2021/07/22 07:51:54;;;;;;;14.13;12.63;;;20.50;99.90;;;;;;4973905;28;20421;-70
2021/07/22 07:54:22;;;;;;;15.02;13.43;;;20.60;99.90;;;;;;4951750;28;20070;-70
2021/07/22 07:56:49;;;;;;;16.70;13.40;;;20.70;99.90;;;;;;4971600;28;20030;-69
2021/07/22 07:59:14;;;;;;;17.70;15.20;;;20.80;99.90;;;;;;4971687;28;20042;-71
2021/07/22 08:01:40;;;;;;;15.48;13.57;;;20.90;99.90;;;;;;4966111;28;20026;-71
2021/07/22 08:04:05;;;;;;;17.08;13.57;;;21.10;99.90;;;;;;4966166;28;20023;-71
2021/07/22 08:06:31;;;;;;;15.23;13.27;;;21.40;99.90;;;;;;4952907;29;20046;-70
2021/07/22 08:08:56;;;;;;;16.58;12.25;;;21.70;99.90;;;;;;4953423;28;20042;-75
2021/07/22 08:11:22;;;;;;;13.60;10.98;;;21.90;99.90;;;;;;4965507;28;20058;-71
2021/07/22 08:13:47;;;;;;;13.98;12.35;;;22.00;99.90;;;;;;4972262;28;20054;-73
2021/07/22 08:16:17;;;;;;;14.77;12.43;;;22.10;99.90;;;;;;4964128;28;20038;-69
2021/07/22 08:18:45;;;;;;;20.42;14.68;;;22.10;99.90;;;;;;4972868;28;20074;-70
2021/07/22 08:21:14;;;;;;;16.38;13.38;;;21.90;99.90;;;;;;4970664;28;20019;-69
2021/07/22 08:23:40;;;;;;;14.50;13.10;;;21.80;99.90;;;;;;4973067;28;20039;-83
2021/07/22 08:26:06;;;;;;;14.77;12.35;;;21.80;99.90;;;;;;4966303;28;20053;-71
2021/07/22 08:28:33;;;;;;;17.35;12.50;;;21.70;99.90;;;;;;4968231;28;20024;-73
2021/07/22 08:30:59;;;;;;;16.70;12.90;;;21.70;99.90;;;;;;4961632;28;20118;-81
2021/07/22 08:33:24;;;;;;;15.60;13.85;;;21.70;99.90;;;;;;4974364;28;20102;-73
2021/07/22 08:35:50;;;;;;;14.52;12.63;;;21.70;99.90;;;;;;4974503;28;20022;-81
2021/07/22 08:38:15;;;;;;;15.95;12.77;;;21.80;99.90;;;;;;4973914;28;20519;-72
2021/07/22 08:40:44;;;;;;;14.15;12.75;;;22.00;99.90;;;;;;4974405;28;20069;-81
2021/07/22 08:43:10;;;;;;;12.90;11.70;;;22.20;99.90;;;;;;4974948;28;20118;-72
2021/07/22 08:45:36;;;;;;;12.63;11.32;;;22.40;99.90;;;;;;4966583;28;20599;-69
2021/07/22 08:48:02;;;;;;;12.13;10.57;;;22.60;99.90;;;;;;4954421;29;20062;-72
2021/07/22 08:50:28;;;;;;;12.38;10.13;;;22.80;99.90;;;;;;4956645;28;20032;-71
2021/07/22 08:52:53;;;;;;;11.07;9.38;;;22.90;99.90;;;;;;4956511;29;20439;-70
2021/07/22 08:55:20;;;;;;;11.20;8.68;;;23.10;99.90;;;;;;4891642;29;20061;-72
2021/07/22 08:57:47;;;;;;;10.50;9.43;;;23.20;99.40;;;;;;4876641;29;20048;-74
2021/07/22 09:00:15;;;;;;;11.68;9.70;;;23.10;99.40;;;;;;4948877;28;20044;-83
2021/07/22 09:02:42;;;;;;;11.60;9.48;;;23.10;99.20;;;;;;4883254;28;20037;-72
2021/07/22 09:05:09;;;;;;;10.27;9.02;;;23.00;99.60;;;;;;4892313;28;20033;-72
2021/07/22 09:07:35;;;;;;;13.63;9.43;;;22.90;99.40;;;;;;4895472;29;20055;-79
2021/07/22 09:10:04;;;;;;;9.88;8.43;;;22.80;99.30;;;;;;4952881;28;20047;-75
2021/07/22 09:12:47;;;;;;;9.15;8.25;;;22.60;99.60;;;;;;4960639;28;20389;-72
2021/07/22 09:15:14;;;;;;;10.45;7.72;;;22.60;99.40;;;;;;4960196;28;20055;-75
2021/07/22 09:17:39;;;;;;;10.85;8.60;;;22.70;99.60;;;;;;4908436;28;20043;-72
2021/07/22 09:20:27;;;;;;;11.02;8.13;;;22.80;99.20;;;;;;4896118;29;20041;-77
2021/07/22 09:22:52;;;;;;;10.13;7.93;;;22.80;99.00;;;;;;4896126;29;20060;-79
2021/07/22 09:25:22;;;;;;;12.88;8.50;;;22.90;99.00;;;;;;4895300;29;20060;-71
2021/07/22 09:27:47;;;;;;;8.43;7.20;;;22.80;98.40;;;;;;4895598;29;20091;-71
2021/07/22 09:30:17;;;;;;;8.80;7.28;;;22.90;98.40;;;;;;4960524;28;20032;-75
2021/07/22 09:32:50;;;;;;;7.40;6.68;;;22.90;97.70;;;;;;4895066;29;20033;-80
2021/07/22 09:35:20;;;;;;;8.75;7.40;;;23.10;97.30;;;;;;4894394;29;20484;-72
2021/07/22 09:37:57;;;;;;;7.57;6.83;;;23.40;97.00;;;;;;4959680;28;20033;-72
2021/07/22 09:40:25;;;;;;;8.23;6.60;;;23.70;96.40;;;;;;4894841;29;20036;-73
2021/07/22 09:42:54;;;;;;;7.93;6.65;;;23.80;96.10;;;;;;4894754;29;20025;-71
2021/07/22 09:45:23;;;;;;;8.52;6.55;;;23.80;95.80;;;;;;4959282;28;20032;-78
2021/07/22 09:47:50;;;;;;;7.60;6.63;;;23.60;95.60;;;;;;4960024;28;20020;-76
2021/07/22 09:50:17;;;;;;;8.02;7.22;;;23.50;95.90;;;;;;4954153;28;20144;-77
2021/07/22 09:52:45;;;;;;;8.93;6.65;;;23.50;96.00;;;;;;4881610;29;20025;-73
2021/07/22 09:55:33;;;;;;;7.28;6.57;;;23.40;95.90;;;;;;4884699;29;20044;-72
2021/07/22 09:58:04;;;;;;;6.93;6.22;;;23.50;95.80;;;;;;4952548;28;20052;-76
2021/07/22 10:00:32;;;;;;;7.05;6.28;;;23.50;96.50;;;;;;4953360;28;20115;-78
2021/07/22 10:03:06;;;;;;;8.35;6.68;;;23.60;96.40;;;;;;4895290;29;20032;-72
2021/07/22 10:05:38;;;;;;;9.82;7.03;;;23.80;96.60;;;;;;4893874;29;20432;-75
2021/07/22 10:08:05;;;;;;;10.93;6.95;;;23.90;95.40;;;;;;4879341;28;20032;-71
2021/07/22 10:10:31;;;;;;;7.65;6.72;;;23.90;95.20;;;;;;4898340;28;20029;-71
2021/07/22 10:13:00;;;;;;;10.65;7.65;;;24.00;95.30;;;;;;4939705;29;20032;-72
2021/07/22 10:15:28;;;;;;;10.13;7.32;;;24.20;95.00;;;;;;4876262;28;20041;-71
2021/07/22 10:18:00;;;;;;;7.95;6.68;;;24.40;94.70;;;;;;4877223;28;20025;-81
2021/07/22 10:20:31;;;;;;;9.02;7.30;;;24.40;95.00;;;;;;4947713;28;20048;-79
2021/07/22 10:22:58;;;;;;;6.63;5.97;;;24.60;94.60;;;;;;4960621;28;20115;-72
2021/07/22 10:25:24;;;;;;;7.57;6.45;;;24.70;94.10;;;;;;4894212;29;20091;-71
2021/07/22 10:27:55;;;;;;;8.27;6.03;;;24.70;93.80;;;;;;4943401;28;20020;-79
2021/07/22 10:30:23;;;;;;;7.10;6.35;;;24.90;94.00;;;;;;4952200;28;20022;-72
2021/07/22 10:32:54;;;;;;;7.45;6.40;;;25.10;93.80;;;;;;4876782;28;20025;-71
2021/07/22 10:35:22;;;;;;;7.20;6.22;;;25.30;93.10;;;;;;4876251;28;20033;-71
2021/07/22 10:38:27;;;;;;;7.40;6.63;;;25.50;92.50;;;;;;4940844;29;20024;-71
2021/07/22 10:40:57;;;;;;;8.50;6.20;;;25.30;91.40;;;;;;4882135;28;20041;-71
2021/07/22 10:43:43;;;;;;;7.25;5.95;;;25.20;92.20;;;;;;4875852;28;20021;-71
2021/07/22 10:46:11;;;;;;;7.05;6.35;;;25.00;92.00;;;;;;4940290;28;20482;-76
2021/07/22 10:48:37;;;;;;;13.27;8.00;;;24.90;92.50;;;;;;4875976;28;20052;-71
2021/07/22 10:51:04;;;;;;;9.85;7.38;;;24.80;92.50;;;;;;4876939;28;20033;-72
2021/07/22 10:53:40;;;;;;;8.90;7.25;;;24.70;92.60;;;;;;4876180;28;20474;-71
2021/07/22 10:56:14;;;;;;;11.60;7.97;;;24.60;92.40;;;;;;4875926;28;20037;-71
2021/07/22 10:58:40;;;;;;;8.27;6.88;;;24.50;93.00;;;;;;4940432;29;20052;-71
2021/07/22 11:01:07;;;;;;;9.35;7.28;;;24.70;93.00;;;;;;4940540;29;20021;-73
2021/07/22 11:03:36;;;;;;;10.07;7.30;;;24.70;92.90;;;;;;4875886;28;20156;-71
2021/07/22 11:06:11;;;;;;;8.30;7.50;;;24.50;92.60;;;;;;4940607;29;20115;-71
2021/07/22 11:08:41;;;;;;;7.57;6.78;;;24.20;93.40;;;;;;4876465;28;20489;-71
2021/07/22 11:11:08;;;;;;;8.43;6.25;;;24.10;93.60;;;;;;4939847;29;20022;-71
2021/07/22 11:13:37;;;;;;;8.20;6.18;;;24.20;94.20;;;;;;4940520;29;20036;-71
2021/07/22 11:16:06;;;;;;;7.25;6.35;;;24.70;93.70;;;;;;4940431;29;20052;-71
2021/07/22 11:18:43;;;;;;;8.95;7.78;;;25.00;92.90;;;;;;4875596;28;20091;-71
2021/07/22 11:21:33;;;;;;;9.25;6.68;;;25.30;92.00;;;;;;4876294;28;20405;-71
2021/07/22 11:24:01;;;;;;;9.68;7.25;;;25.30;92.30;;;;;;4880144;28;20100;-71
2021/07/22 11:26:29;;;;;;;8.75;7.30;;;25.20;91.80;;;;;;4876050;28;20036;-70
2021/07/22 11:28:55;;;;;;;9.32;7.13;;;25.10;92.10;;;;;;4876185;28;20036;-71
2021/07/22 11:31:21;;;;;;;8.23;6.85;;;25.10;91.90;;;;;;4875357;28;20059;-72
2021/07/22 11:33:47;;;;;;;8.48;7.18;;;25.00;91.60;;;;;;4876150;28;20036;-79
2021/07/22 11:36:15;;;;;;;8.52;6.82;;;24.90;91.70;;;;;;4876045;28;20033;-71
2021/07/22 11:38:41;;;;;;;11.23;8.98;;;25.10;92.10;;;;;;4939407;29;20025;-73
2021/07/22 11:41:12;;;;;;;7.45;6.70;;;25.20;91.70;;;;;;4939949;29;20029;-73
2021/07/22 11:43:40;;;;;;;9.82;7.45;;;25.00;91.50;;;;;;4876347;28;20040;-73
2021/07/22 11:46:08;;;;;;;8.18;7.05;;;24.70;91.70;;;;;;4875256;28;20037;-75
2021/07/22 11:48:34;;;;;;;9.00;6.72;;;24.40;92.20;;;;;;4939967;29;20053;-72
2021/07/22 11:51:05;;;;;;;8.05;6.55;;;24.10;92.30;;;;;;4876074;28;20084;-72
2021/07/22 11:53:30;;;;;;;9.27;6.95;;;23.70;93.00;;;;;;4939002;29;20021;-75
2021/07/22 11:55:58;;;;;;;7.35;6.65;;;23.40;93.40;;;;;;4875924;28;20037;-72
2021/07/22 11:58:24;;;;;;;9.45;6.10;;;23.20;93.70;;;;;;4941208;28;20497;-71
2021/07/22 12:00:50;;;;;;;8.48;6.40;;;23.30;94.00;;;;;;4878312;28;20043;-75
2021/07/22 12:03:22;;;;;;;6.25;5.65;;;23.40;93.10;;;;;;4943026;29;20116;-71
2021/07/22 12:05:48;;;;;;;6.75;6.00;;;23.70;93.00;;;;;;4878740;28;20080;-71
2021/07/22 12:08:19;;;;;;;7.57;6.40;;;24.00;92.50;;;;;;4878778;28;20182;-75
2021/07/22 12:10:46;;;;;;;7.90;6.67;;;24.30;92.20;;;;;;4943403;29;20033;-73
2021/07/22 12:13:12;;;;;;;8.63;7.05;;;24.40;92.20;;;;;;4878009;28;20082;-71
2021/07/22 12:15:39;;;;;;;7.45;6.32;;;24.60;91.90;;;;;;4943462;29;20092;-72
2021/07/22 12:18:05;;;;;;;7.32;6.22;;;24.50;92.10;;;;;;4943403;29;20025;-77
2021/07/22 12:20:33;;;;;;;6.28;5.68;;;24.50;91.90;;;;;;4877811;28;20041;-72
2021/07/22 12:22:59;;;;;;;8.00;5.20;;;24.40;91.80;;;;;;4878844;28;20109;-72
2021/07/22 12:25:27;;;;;;;7.13;6.32;;;24.40;91.40;;;;;;4878567;28;20116;-71
2021/07/22 12:27:53;;;;;;;6.07;5.38;;;24.50;91.20;;;;;;4942718;29;20366;-79
2021/07/22 12:30:21;;;;;;;6.50;5.78;;;24.70;90.90;;;;;;4878543;28;20032;-72
2021/07/22 12:32:53;;;;;;;6.30;5.68;;;24.90;90.90;;;;;;4878721;28;20032;-76